Terminal Aerodrome Forecast
Issued by NWS

Current Version | Previous Version | Text Only | Print | Product List | Glossary Off
Versions: 1 2 3 4 5 6 7 8 9 10 11 12 13 14 15 16

148
FTUS41 KPBZ 060542
TAFMGW
TAF
KMGW 060542Z 0606/0706 VRB03KT P6SM BKN200
     FM061200 10010G18KT P6SM -RA OVC040
     FM061500 12010G22KT 3SM -RA OVC020
     FM062200 12005KT P6SM VCSH OVC010=

USA.gov is the U.S. government's official web portal to all federal, state and local government web resources and services.